createdAt,value
2023-04-15T00:02:27.940Z,8.60
2023-04-15T00:04:57.346Z,8.50
2023-04-15T00:07:25.298Z,8.50
2023-04-15T00:09:55.197Z,8.50
2023-04-15T00:12:23.164Z,8.50
2023-04-15T00:14:51.168Z,8.50
2023-04-15T00:17:19.312Z,8.50
2023-04-15T00:19:47.384Z,8.50
2023-04-15T00:22:17.196Z,8.50
2023-04-15T00:24:45.151Z,8.50
2023-04-15T00:27:13.088Z,8.50
2023-04-15T00:29:41.273Z,8.50
2023-04-15T00:32:09.183Z,8.50
2023-04-15T00:34:37.226Z,8.50
2023-04-15T00:37:05.188Z,8.40
2023-04-15T00:39:34.518Z,8.50
2023-04-15T00:42:03.021Z,8.40
2023-04-15T00:44:30.965Z,8.40
2023-04-15T00:46:59.568Z,8.40
2023-04-15T00:49:28.896Z,8.40
2023-04-15T00:51:57.062Z,8.40
2023-04-15T00:54:25.177Z,8.40
2023-04-15T00:56:54.491Z,8.40
2023-04-15T00:59:22.949Z,8.40
2023-04-15T01:01:51.807Z,8.40
2023-04-15T01:04:20.029Z,8.40
2023-04-15T01:06:47.999Z,8.40
2023-04-15T01:09:16.290Z,8.40
2023-04-15T01:11:44.708Z,8.40
2023-04-15T01:14:14.639Z,8.40
2023-04-15T01:16:42.579Z,8.40
2023-04-15T01:19:12.505Z,8.40
2023-04-15T01:21:40.939Z,8.40
2023-04-15T01:24:11.915Z,8.40
2023-04-15T01:26:42.413Z,8.40
2023-04-15T01:29:11.588Z,8.40
2023-04-15T01:31:39.630Z,8.40
2023-04-15T01:34:07.728Z,8.40
2023-04-15T01:36:35.746Z,8.40
2023-04-15T01:39:03.767Z,8.40
2023-04-15T01:41:31.725Z,8.40
2023-04-15T01:44:01.606Z,8.40
2023-04-15T01:46:29.675Z,8.40
2023-04-15T01:48:57.689Z,8.40
2023-04-15T01:51:25.630Z,8.40
2023-04-15T01:53:53.580Z,8.30
2023-04-15T01:56:21.547Z,8.30
2023-04-15T01:58:49.612Z,8.40
2023-04-15T02:01:19.668Z,8.40
2023-04-15T02:03:48.540Z,8.40
2023-04-15T02:06:16.655Z,8.40
2023-04-15T02:08:44.578Z,8.40
2023-04-15T02:11:12.523Z,8.30
2023-04-15T02:13:40.614Z,8.30
2023-04-15T02:16:18.794Z,8.30
2023-04-15T02:18:47.392Z,8.30
2023-04-15T02:21:15.596Z,8.30
2023-04-15T02:23:44.022Z,8.30
2023-04-15T02:26:11.960Z,8.30
2023-04-15T02:28:39.914Z,8.30
2023-04-15T02:31:09.506Z,8.30
2023-04-15T02:33:38.795Z,8.30
2023-04-15T02:36:07.491Z,8.30
2023-04-15T02:38:35.494Z,8.30
2023-04-15T02:41:03.428Z,8.30
2023-04-15T02:43:31.607Z,8.30
2023-04-15T02:45:59.574Z,8.30
2023-04-15T02:48:27.518Z,8.30
2023-04-15T02:51:12.620Z,8.30
2023-04-15T02:53:41.510Z,8.40
2023-04-15T02:56:09.611Z,8.30
2023-04-15T02:58:37.680Z,8.30
2023-04-15T03:01:05.679Z,8.40
2023-04-15T03:03:33.765Z,8.40
2023-04-15T03:06:03.103Z,8.40
2023-04-15T03:08:31.446Z,8.40
2023-04-15T03:11:00.870Z,8.40
2023-04-15T03:13:29.069Z,8.40
2023-04-15T03:15:57.054Z,8.40
2023-04-15T03:18:25.028Z,8.40
2023-04-15T03:20:52.994Z,8.40
2023-04-15T03:23:22.286Z,8.40
2023-04-15T03:25:50.287Z,8.40
2023-04-15T03:28:18.220Z,8.40
2023-04-15T03:30:46.209Z,8.40
2023-04-15T03:33:14.155Z,8.40
2023-04-15T03:35:42.048Z,8.40
2023-04-15T03:38:10.061Z,8.40
2023-04-15T03:40:40.582Z,8.40
2023-04-15T03:43:08.526Z,8.50
2023-04-15T03:45:36.648Z,8.50
2023-04-15T03:48:16.761Z,8.50
2023-04-15T03:50:46.040Z,8.40
2023-04-15T03:53:14.023Z,8.40
2023-04-15T03:55:43.568Z,8.40
2023-04-15T03:58:12.900Z,8.40
2023-04-15T04:00:41.414Z,8.40
2023-04-15T04:03:09.709Z,8.40
2023-04-15T04:05:38.987Z,8.40
2023-04-15T04:08:07.464Z,8.40
2023-04-15T04:10:35.426Z,8.40
2023-04-15T04:13:04.755Z,8.40
2023-04-15T04:15:32.700Z,8.40
2023-04-15T04:18:00.772Z,8.40
2023-04-15T04:20:28.713Z,8.40
2023-04-15T04:22:56.613Z,8.50
2023-04-15T04:25:24.607Z,8.50
2023-04-15T04:27:52.549Z,8.50
2023-04-15T04:30:22.143Z,8.50
2023-04-15T04:32:51.549Z,8.50
2023-04-15T04:35:19.568Z,8.50
2023-04-15T04:37:47.495Z,8.50
2023-04-15T04:40:15.597Z,8.50
2023-04-15T04:42:43.540Z,8.50
2023-04-15T04:45:11.966Z,8.50
2023-04-15T04:47:41.313Z,8.50
2023-04-15T04:50:10.302Z,8.50
2023-04-15T04:52:38.224Z,8.50
2023-04-15T04:55:06.896Z,8.50
2023-04-15T04:57:35.831Z,8.50
2023-04-15T05:00:04.991Z,8.50
2023-04-15T05:02:33.313Z,8.60
2023-04-15T05:05:02.706Z,8.60
2023-04-15T05:07:30.663Z,8.60
2023-04-15T05:09:58.600Z,8.60
2023-04-15T05:12:26.615Z,8.60
2023-04-15T05:14:54.529Z,8.60
2023-04-15T05:17:22.549Z,8.60
2023-04-15T05:19:50.601Z,8.60
2023-04-15T05:22:19.907Z,8.60
2023-04-15T05:24:47.825Z,8.70
2023-04-15T05:27:15.795Z,8.70
2023-04-15T05:29:43.733Z,8.70
2023-04-15T05:32:12.037Z,8.70
2023-04-15T05:34:39.968Z,8.70
2023-04-15T05:37:07.929Z,8.70
2023-04-15T05:39:37.244Z,8.70
2023-04-15T05:42:05.982Z,8.70
2023-04-15T05:44:34.077Z,8.70
2023-04-15T05:47:03.468Z,8.70
2023-04-15T05:49:33.634Z,8.70
2023-04-15T05:52:01.568Z,8.70
2023-04-15T05:54:29.506Z,8.70
2023-04-15T05:56:58.942Z,8.70
2023-04-15T05:59:27.153Z,8.70
2023-04-15T06:01:55.194Z,8.70
2023-04-15T06:04:23.254Z,8.70
2023-04-15T06:06:51.289Z,8.70
2023-04-15T06:09:19.190Z,8.80
2023-04-15T06:11:47.129Z,8.80
2023-04-15T06:14:16.917Z,8.80
2023-04-15T06:16:44.874Z,8.80
2023-04-15T06:19:14.299Z,8.80
2023-04-15T06:21:42.861Z,8.80
2023-04-15T06:24:10.909Z,8.80
2023-04-15T06:26:38.874Z,8.80
2023-04-15T06:29:06.892Z,8.80
2023-04-15T06:31:36.264Z,8.80
2023-04-15T06:34:04.233Z,8.80
2023-04-15T06:36:32.389Z,8.80
2023-04-15T06:39:01.456Z,8.80
2023-04-15T06:41:29.630Z,8.80
2023-04-15T06:43:57.653Z,8.80
2023-04-15T06:46:26.024Z,8.80
2023-04-15T06:48:55.379Z,8.80
2023-04-15T06:51:26.121Z,8.80
2023-04-15T06:53:54.695Z,8.80
2023-04-15T06:56:23.274Z,8.90
2023-04-15T06:58:51.210Z,8.90
2023-04-15T07:01:19.190Z,8.90
2023-04-15T07:03:47.320Z,8.90
2023-04-15T07:06:17.013Z,8.90
2023-04-15T07:08:45.014Z,8.90
2023-04-15T07:11:13.095Z,9.00
2023-04-15T07:13:41.059Z,9.00
2023-04-15T07:16:09.005Z,9.00
2023-04-15T07:18:36.947Z,9.00
2023-04-15T07:21:05.528Z,9.00
2023-04-15T07:23:34.846Z,9.00
2023-04-15T07:26:02.811Z,9.10
2023-04-15T07:28:31.536Z,9.10
2023-04-15T07:31:01.188Z,9.10
2023-04-15T07:33:29.357Z,9.10
2023-04-15T07:35:57.334Z,9.10
2023-04-15T07:38:25.278Z,9.10
2023-04-15T07:40:54.643Z,9.20
2023-04-15T07:43:22.664Z,9.20
2023-04-15T07:45:50.658Z,9.20
2023-04-15T07:48:18.630Z,9.20
2023-04-15T07:50:46.669Z,9.20
2023-04-15T07:53:14.602Z,9.20
2023-04-15T07:55:42.609Z,9.20
2023-04-15T07:58:11.912Z,9.30
2023-04-15T08:00:40.152Z,9.30
2023-04-15T08:03:08.348Z,9.30
2023-04-15T08:05:36.590Z,9.30
2023-04-15T08:08:04.550Z,9.30
2023-04-15T08:10:32.613Z,9.30
2023-04-15T08:13:00.969Z,9.40
2023-04-15T08:15:31.391Z,9.40
2023-04-15T08:18:00.694Z,9.40
2023-04-15T08:20:34.312Z,9.40
2023-04-15T08:23:02.295Z,9.40
2023-04-15T08:25:30.352Z,9.40
2023-04-15T08:27:58.312Z,9.40
2023-04-15T08:30:26.250Z,9.40
2023-04-15T08:32:55.603Z,9.40
2023-04-15T08:35:23.876Z,9.50
2023-04-15T08:37:52.216Z,9.50
2023-04-15T08:40:20.550Z,9.50
2023-04-15T08:42:52.519Z,9.60
2023-04-15T08:45:21.851Z,9.60
2023-04-15T08:47:54.770Z,9.60
2023-04-15T08:50:25.331Z,9.60
2023-04-15T08:52:55.805Z,9.70
2023-04-15T08:55:24.686Z,9.70
2023-04-15T08:57:52.707Z,9.70
2023-04-15T09:00:21.057Z,9.80
2023-04-15T09:02:49.115Z,9.80
2023-04-15T09:05:17.572Z,9.80
2023-04-15T09:07:46.956Z,9.90
2023-04-15T09:10:15.100Z,9.90
2023-04-15T09:12:43.044Z,9.90
2023-04-15T09:15:13.725Z,10.00
2023-04-15T09:17:44.584Z,10.00
2023-04-15T09:20:14.024Z,10.00
2023-04-15T09:22:42.239Z,10.00
2023-04-15T09:25:31.197Z,10.00
2023-04-15T09:28:02.336Z,10.10
2023-04-15T09:30:30.680Z,10.10
2023-04-15T09:33:00.262Z,10.20
2023-04-15T09:35:29.051Z,10.20
2023-04-15T09:38:05.257Z,10.30
2023-04-15T09:40:36.392Z,10.40
2023-04-15T09:43:05.178Z,10.50
2023-04-15T09:45:34.298Z,10.50
2023-04-15T09:48:20.818Z,10.60
2023-04-15T09:50:50.283Z,10.70
2023-04-15T09:53:20.091Z,10.80
2023-04-15T09:55:51.623Z,10.90
2023-04-15T09:58:20.432Z,11.00
2023-04-15T10:00:49.574Z,11.00
2023-04-15T10:03:21.860Z,11.10
2023-04-15T10:05:51.720Z,11.20
2023-04-15T10:08:21.591Z,11.20
2023-04-15T10:10:51.851Z,11.30
2023-04-15T10:13:22.273Z,11.40
2023-04-15T10:15:53.482Z,11.50
2023-04-15T10:18:22.590Z,11.60
2023-04-15T10:20:51.176Z,11.60
2023-04-15T10:23:20.482Z,11.70
2023-04-15T10:25:50.587Z,11.80
2023-04-15T10:28:18.686Z,11.80
2023-04-15T10:30:47.967Z,11.90
2023-04-15T10:33:17.238Z,12.10
2023-04-15T10:35:46.352Z,12.30
2023-04-15T10:38:33.690Z,12.40
2023-04-15T10:41:18.048Z,12.70
2023-04-15T10:43:51.451Z,12.90
2023-04-15T10:46:21.845Z,13.00
2023-04-15T10:48:51.577Z,13.10
2023-04-15T10:51:30.398Z,13.10
2023-04-15T10:53:59.960Z,13.20
2023-04-15T10:56:31.590Z,13.20
2023-04-15T10:59:01.726Z,13.40
2023-04-15T11:01:56.600Z,13.60
2023-04-15T11:04:55.966Z,13.80
2023-04-15T11:07:41.867Z,14.10
2023-04-15T11:10:55.427Z,14.30
2023-04-15T11:13:32.995Z,14.50
2023-04-15T11:16:02.548Z,14.50
2023-04-15T11:18:32.988Z,14.50
2023-04-15T11:21:03.439Z,14.50
2023-04-15T11:23:34.127Z,14.40
2023-04-15T11:26:05.470Z,14.40
2023-04-15T11:28:37.461Z,14.30
2023-04-15T11:31:11.835Z,14.20
2023-04-15T11:33:46.198Z,14.10
2023-04-15T11:36:14.290Z,14.10
2023-04-15T11:38:45.069Z,14.10
2023-04-15T11:41:13.075Z,14.00
2023-04-15T11:43:42.501Z,14.00
2023-04-15T11:46:10.603Z,14.00
2023-04-15T11:48:42.790Z,14.00
2023-04-15T11:51:10.897Z,14.00
2023-04-15T11:53:41.197Z,14.00
2023-04-15T11:56:10.549Z,14.10
2023-04-15T11:58:39.483Z,14.10
2023-04-15T12:01:08.849Z,14.10
2023-04-15T12:03:41.493Z,14.10
2023-04-15T12:06:12.757Z,14.20
2023-04-15T12:08:52.652Z,14.20
2023-04-15T12:11:21.575Z,14.10
2023-04-15T12:13:51.239Z,14.00
2023-04-15T12:16:21.133Z,13.90
2023-04-15T12:18:52.050Z,13.90
2023-04-15T12:21:20.944Z,13.90
2023-04-15T12:23:52.895Z,13.80
2023-04-15T12:26:28.270Z,13.90
2023-04-15T12:28:56.684Z,13.90
2023-04-15T12:31:26.065Z,13.90
2023-04-15T12:33:56.432Z,13.80
2023-04-15T12:36:24.752Z,13.80
2023-04-15T12:38:52.696Z,13.80
2023-04-15T12:41:21.800Z,13.80
2023-04-15T12:43:49.711Z,13.70
2023-04-15T12:46:17.797Z,13.70
2023-04-15T12:48:47.310Z,13.70
2023-04-15T12:51:15.595Z,13.70
2023-04-15T12:53:43.521Z,13.70
2023-04-15T12:56:11.517Z,13.70
2023-04-15T12:58:39.420Z,13.80
2023-04-15T13:01:07.544Z,13.80
2023-04-15T13:03:35.726Z,13.90
2023-04-15T13:06:05.982Z,14.00
2023-04-15T13:08:34.777Z,14.00
2023-04-15T13:11:02.934Z,14.10
2023-04-15T13:13:31.932Z,14.20
2023-04-15T13:15:59.931Z,14.30
2023-04-15T13:18:28.128Z,14.30
2023-04-15T13:20:56.683Z,14.30
2023-04-15T13:23:25.942Z,14.40
2023-04-15T13:25:53.925Z,14.50
2023-04-15T13:28:22.346Z,14.50
2023-04-15T13:30:50.487Z,14.60
2023-04-15T13:33:18.678Z,14.50
2023-04-15T13:35:46.597Z,14.60
2023-04-15T13:38:14.524Z,14.60
2023-04-15T13:40:43.823Z,14.60
2023-04-15T13:43:12.168Z,14.60
2023-04-15T13:45:40.346Z,14.80
2023-04-15T13:48:08.526Z,15.10
2023-04-15T13:50:36.561Z,15.50
2023-04-15T13:53:04.554Z,15.90
2023-04-15T13:55:34.951Z,16.90
2023-04-15T13:58:04.276Z,18.30
2023-04-15T14:00:32.248Z,19.70
2023-04-15T14:03:00.355Z,20.20
2023-04-15T14:05:28.440Z,20.80
2023-04-15T14:07:56.438Z,20.30
2023-04-15T14:10:24.362Z,19.60
2023-04-15T14:12:52.346Z,19.20
2023-04-15T14:15:22.755Z,19.70
2023-04-15T14:17:51.016Z,20.40
2023-04-15T14:20:19.122Z,20.90
2023-04-15T14:22:47.061Z,20.60
2023-04-15T14:25:20.179Z,20.00
2023-04-15T14:27:58.763Z,19.30
2023-04-15T14:30:28.082Z,18.70
2023-04-15T14:32:56.117Z,18.50
2023-04-15T14:35:26.516Z,18.40
2023-04-15T14:37:54.699Z,18.10
2023-04-15T14:40:22.798Z,17.70
2023-04-15T14:42:50.937Z,17.40
2023-04-15T14:45:18.972Z,17.20
2023-04-15T14:47:48.685Z,17.00
2023-04-15T14:50:16.731Z,16.90
2023-04-15T14:52:44.675Z,16.60
2023-04-15T14:55:13.850Z,16.50
2023-04-15T14:57:43.302Z,16.40
2023-04-15T15:00:15.869Z,16.30
2023-04-15T15:02:44.386Z,16.10
2023-04-15T15:05:13.924Z,16.00
2023-04-15T15:07:42.123Z,15.90
2023-04-15T15:10:10.401Z,15.80
2023-04-15T15:12:38.379Z,15.80
2023-04-15T15:15:15.464Z,15.60
2023-04-15T15:17:44.020Z,15.40
2023-04-15T15:20:13.540Z,15.30
2023-04-15T15:22:41.500Z,15.30
2023-04-15T15:25:09.605Z,15.30
2023-04-15T15:27:38.406Z,15.20
2023-04-15T15:30:07.486Z,15.10
2023-04-15T15:32:35.509Z,15.00
2023-04-15T15:35:03.694Z,15.00
2023-04-15T15:37:33.098Z,15.00
2023-04-15T15:40:01.550Z,14.90
2023-04-15T15:42:32.849Z,14.90
2023-04-15T15:45:02.153Z,14.90
2023-04-15T15:47:30.265Z,14.80
2023-04-15T15:49:58.320Z,14.90
2023-04-15T15:52:26.270Z,14.90
2023-04-15T15:54:55.678Z,14.80
2023-04-15T15:57:24.745Z,14.70
2023-04-15T16:00:04.947Z,14.50
2023-04-15T16:03:04.149Z,14.40
2023-04-15T16:05:26.170Z,14.40
2023-04-15T16:07:54.235Z,14.20
2023-04-15T16:10:23.568Z,14.20
2023-04-15T16:12:51.525Z,14.10
2023-04-15T16:15:19.633Z,14.00
2023-04-15T16:17:47.660Z,14.00
2023-04-15T16:20:16.835Z,13.90
2023-04-15T16:22:45.006Z,13.80
2023-04-15T16:25:12.996Z,13.80
2023-04-15T16:27:57.235Z,13.70
2023-04-15T16:30:27.297Z,13.60
2023-04-15T16:32:55.345Z,13.70
2023-04-15T16:35:23.305Z,13.60
2023-04-15T16:37:51.231Z,13.60
2023-04-15T16:40:19.222Z,13.60
2023-04-15T16:42:48.710Z,13.50
2023-04-15T16:45:18.698Z,13.50
2023-04-15T16:47:47.864Z,13.40
2023-04-15T16:50:15.857Z,13.30
2023-04-15T16:52:43.801Z,13.30
2023-04-15T16:55:11.810Z,13.20
2023-04-15T16:58:01.220Z,13.10
2023-04-15T17:00:29.403Z,13.00
2023-04-15T17:02:57.809Z,13.00
2023-04-15T17:05:27.351Z,12.90
2023-04-15T17:07:55.844Z,12.90
2023-04-15T17:10:24.100Z,12.90
2023-04-15T17:12:52.536Z,12.80
2023-04-15T17:15:20.916Z,12.80
2023-04-15T17:17:50.395Z,12.80
2023-04-15T17:20:18.464Z,12.80
2023-04-15T17:22:46.753Z,12.70
2023-04-15T17:25:15.191Z,12.70
2023-04-15T17:27:43.096Z,12.70
2023-04-15T17:30:11.695Z,12.80
2023-04-15T17:32:40.222Z,12.80
2023-04-15T17:35:10.841Z,12.70
2023-04-15T17:37:39.044Z,12.70
2023-04-15T17:40:09.025Z,12.70
2023-04-15T17:42:37.123Z,12.70
2023-04-15T17:45:05.578Z,12.60
2023-04-15T17:47:33.546Z,12.60
2023-04-15T17:50:01.483Z,12.50
2023-04-15T17:52:30.837Z,12.50
2023-04-15T17:54:58.735Z,12.40
2023-04-15T17:57:26.817Z,12.40
2023-04-15T17:59:54.809Z,12.30
2023-04-15T18:02:22.915Z,12.30
2023-04-15T18:04:51.130Z,12.20
2023-04-15T18:07:19.197Z,12.20
2023-04-15T18:09:50.367Z,12.20
2023-04-15T18:12:20.565Z,12.10
2023-04-15T18:14:48.546Z,12.10
2023-04-15T18:17:16.462Z,12.00
2023-04-15T18:19:45.976Z,12.00
2023-04-15T18:22:13.927Z,11.90
2023-04-15T18:24:43.178Z,11.90
2023-04-15T18:27:12.432Z,11.90
2023-04-15T18:29:40.450Z,11.90
2023-04-15T18:32:08.411Z,11.80
2023-04-15T18:34:36.448Z,11.70
2023-04-15T18:37:05.302Z,11.60
2023-04-15T18:39:33.377Z,11.60
2023-04-15T18:42:01.856Z,11.50
2023-04-15T18:44:31.346Z,11.50
2023-04-15T18:46:59.457Z,11.40
2023-04-15T18:49:27.463Z,11.40
2023-04-15T18:51:55.538Z,11.30
2023-04-15T18:54:23.442Z,11.20
2023-04-15T18:56:52.019Z,11.20
2023-04-15T18:59:30.028Z,11.20
2023-04-15T19:02:01.333Z,11.10
2023-04-15T19:04:29.704Z,11.10
2023-04-15T19:06:58.944Z,11.10
2023-04-15T19:09:27.390Z,11.10
2023-04-15T19:11:56.748Z,11.00
2023-04-15T19:14:24.753Z,11.00
2023-04-15T19:16:52.797Z,10.90
2023-04-15T19:19:22.196Z,10.90
2023-04-15T19:21:50.425Z,10.90
2023-04-15T19:24:18.754Z,10.90
2023-04-15T19:26:49.637Z,10.80
2023-04-15T19:29:17.752Z,10.80
2023-04-15T19:31:45.782Z,10.70
2023-04-15T19:34:13.814Z,10.70
2023-04-15T19:36:43.503Z,10.60
2023-04-15T19:39:11.668Z,10.60
2023-04-15T19:41:39.738Z,10.60
2023-04-15T19:44:08.027Z,10.50
2023-04-15T19:46:35.982Z,10.60
2023-04-15T19:49:04.234Z,10.50
2023-04-15T19:51:32.428Z,10.50
2023-04-15T19:54:01.778Z,10.50
2023-04-15T19:56:31.666Z,10.50
2023-04-15T19:59:01.788Z,10.40
2023-04-15T20:01:29.852Z,10.40
2023-04-15T20:03:57.902Z,10.40
2023-04-15T20:06:26.696Z,10.40
2023-04-15T20:08:54.656Z,10.30
2023-04-15T20:12:44.856Z,10.30
2023-04-15T20:14:17.472Z,10.30
2023-04-15T20:16:45.444Z,10.30
2023-04-15T20:19:13.837Z,10.30
2023-04-15T20:21:41.772Z,10.30
2023-04-15T20:24:10.067Z,10.20
2023-04-15T20:26:39.365Z,10.20
2023-04-15T20:29:07.663Z,10.20
2023-04-15T20:31:36.153Z,10.10
2023-04-15T20:34:04.106Z,10.10
2023-04-15T20:36:32.688Z,10.00
2023-04-15T20:39:00.650Z,10.00
2023-04-15T20:41:28.681Z,10.00
2023-04-15T20:43:57.962Z,9.90
2023-04-15T20:46:27.368Z,9.90
2023-04-15T20:48:56.076Z,9.80
2023-04-15T20:51:24.007Z,9.80
2023-04-15T20:53:52.233Z,9.80
2023-04-15T20:56:20.182Z,9.80
2023-04-15T20:58:48.093Z,9.70
2023-04-15T21:01:17.426Z,9.70
2023-04-15T21:03:45.649Z,9.70
2023-04-15T21:06:13.712Z,9.70
2023-04-15T21:08:41.746Z,9.70
2023-04-15T21:11:09.658Z,9.70
2023-04-15T21:13:37.631Z,9.70
2023-04-15T21:16:06.228Z,9.70
2023-04-15T21:18:35.644Z,9.60
2023-04-15T21:21:04.001Z,9.60
2023-04-15T21:23:35.792Z,9.60
2023-04-15T21:26:03.903Z,9.50
2023-04-15T21:28:31.842Z,9.50
2023-04-15T21:31:00.276Z,9.50
2023-04-15T21:33:28.398Z,9.50
2023-04-15T21:35:57.710Z,9.50
2023-04-15T21:38:25.652Z,9.50
2023-04-15T21:40:53.667Z,9.40
2023-04-15T21:43:22.834Z,9.40
2023-04-15T21:46:20.723Z,9.40
2023-04-15T21:48:38.656Z,9.40
2023-04-15T21:51:08.977Z,9.40
2023-04-15T21:53:36.865Z,9.40
2023-04-15T21:56:08.949Z,9.40
2023-04-15T21:58:37.311Z,9.40
2023-04-15T22:01:05.570Z,9.30
2023-04-15T22:03:35.141Z,9.30
2023-04-15T22:06:03.886Z,9.30
2023-04-15T22:08:41.638Z,9.30
2023-04-15T22:11:22.997Z,9.30
2023-04-15T22:13:50.992Z,9.30
2023-04-15T22:16:18.979Z,9.30
2023-04-15T22:18:46.963Z,9.30
2023-04-15T22:21:14.921Z,9.30
2023-04-15T22:23:46.929Z,9.30
2023-04-15T22:26:14.965Z,9.20
2023-04-15T22:28:43.157Z,9.20
2023-04-15T22:31:11.324Z,9.20
2023-04-15T22:33:39.693Z,9.20
2023-04-15T22:36:07.668Z,9.20
2023-04-15T22:38:35.657Z,9.20
2023-04-15T22:41:04.982Z,9.20
2023-04-15T22:43:32.863Z,9.20
2023-04-15T22:46:01.403Z,9.10
2023-04-15T22:48:29.382Z,9.10
2023-04-15T22:50:57.292Z,9.20
2023-04-15T22:53:25.219Z,9.10
2023-04-15T22:55:53.966Z,9.10
2023-04-15T22:58:23.384Z,9.10
2023-04-15T23:00:51.264Z,9.10
2023-04-15T23:03:19.223Z,9.10
2023-04-15T23:05:47.288Z,9.10
2023-04-15T23:08:15.192Z,9.00
2023-04-15T23:10:44.586Z,9.00
2023-04-15T23:13:12.508Z,9.00
2023-04-15T23:15:41.797Z,8.90
2023-04-15T23:18:09.838Z,8.90
2023-04-15T23:20:37.885Z,8.90
2023-04-15T23:23:05.904Z,8.90
2023-04-15T23:25:33.824Z,8.90
2023-04-15T23:28:01.752Z,8.90
2023-04-15T23:30:29.699Z,8.80
2023-04-15T23:32:58.975Z,8.90
2023-04-15T23:35:27.187Z,8.80
2023-04-15T23:37:55.097Z,8.80
2023-04-15T23:40:23.081Z,8.80
2023-04-15T23:42:51.770Z,8.80
2023-04-15T23:45:19.688Z,8.80
2023-04-15T23:47:47.747Z,8.80
2023-04-15T23:50:17.124Z,8.80
2023-04-15T23:52:45.062Z,8.70
2023-04-15T23:55:12.975Z,8.70
2023-04-15T23:57:41.465Z,8.70
